sensor_id;sensor_type;location;lat;lon;timestamp;pressure;altitude;pressure_sealevel;temperature;humidity
18795;BME280;29610;49.022;12.114;2023-04-10T00:02:06;98526.88;;;5.18;100.00
18795;BME280;29610;49.022;12.114;2023-04-10T00:04:55;98536.84;;;5.22;100.00
18795;BME280;29610;49.022;12.114;2023-04-10T00:07:44;98529.81;;;5.16;100.00
18795;BME280;29610;49.022;12.114;2023-04-10T00:10:33;98524.47;;;5.26;100.00
18795;BME280;29610;49.022;12.114;2023-04-10T00:13:24;98528.78;;;5.47;100.00
18795;BME280;29610;49.022;12.114;2023-04-10T00:16:12;98519.63;;;5.48;100.00
18795;BME280;29610;49.022;12.114;2023-04-10T00:19:02;98524.50;;;5.56;100.00
18795;BME280;29610;49.022;12.114;2023-04-10T00:21:51;98523.97;;;5.59;100.00
18795;BME280;29610;49.022;12.114;2023-04-10T00:24:39;98513.97;;;5.70;100.00
18795;BME280;29610;49.022;12.114;2023-04-10T00:27:28;98518.28;;;5.41;100.00
18795;BME280;29610;49.022;12.114;2023-04-10T00:30:19;98515.06;;;5.69;100.00
18795;BME280;29610;49.022;12.114;2023-04-10T00:33:08;98509.16;;;5.82;100.00
18795;BME280;29610;49.022;12.114;2023-04-10T00:35:58;98515.34;;;5.92;100.00
18795;BME280;29610;49.022;12.114;2023-04-10T00:38:47;98511.00;;;6.12;100.00
18795;BME280;29610;49.022;12.114;2023-04-10T00:41:36;98512.88;;;6.21;100.00
18795;BME280;29610;49.022;12.114;2023-04-10T00:44:25;98498.81;;;6.34;100.00
18795;BME280;29610;49.022;12.114;2023-04-10T00:47:17;98497.44;;;6.37;100.00
18795;BME280;29610;49.022;12.114;2023-04-10T00:50:07;98494.72;;;6.47;100.00
18795;BME280;29610;49.022;12.114;2023-04-10T00:52:58;98493.97;;;6.31;100.00
18795;BME280;29610;49.022;12.114;2023-04-10T00:55:48;98496.97;;;6.15;100.00
18795;BME280;29610;49.022;12.114;2023-04-10T00:58:37;98489.97;;;6.09;100.00
18795;BME280;29610;49.022;12.114;2023-04-10T01:01:26;98496.94;;;6.20;100.00
18795;BME280;29610;49.022;12.114;2023-04-10T01:04:17;98486.41;;;6.23;100.00
18795;BME280;29610;49.022;12.114;2023-04-10T01:07:14;98480.47;;;6.31;100.00
18795;BME280;29610;49.022;12.114;2023-04-10T01:10:22;98488.56;;;6.36;100.00
18795;BME280;29610;49.022;12.114;2023-04-10T01:13:21;98483.94;;;6.42;100.00
18795;BME280;29610;49.022;12.114;2023-04-10T01:16:19;98486.88;;;6.45;100.00
18795;BME280;29610;49.022;12.114;2023-04-10T01:19:25;98488.53;;;6.41;100.00
18795;BME280;29610;49.022;12.114;2023-04-10T01:22:25;98487.81;;;6.11;100.00
18795;BME280;29610;49.022;12.114;2023-04-10T01:25:37;98486.13;;;6.30;100.00
18795;BME280;29610;49.022;12.114;2023-04-10T01:28:58;98473.38;;;6.45;100.00
18795;BME280;29610;49.022;12.114;2023-04-10T01:31:54;98479.59;;;6.46;100.00
18795;BME280;29610;49.022;12.114;2023-04-10T01:34:49;98477.50;;;6.18;100.00
18795;BME280;29610;49.022;12.114;2023-04-10T01:37:42;98465.38;;;6.15;100.00
18795;BME280;29610;49.022;12.114;2023-04-10T01:40:31;98462.44;;;6.12;100.00
18795;BME280;29610;49.022;12.114;2023-04-10T01:43:26;98463.81;;;5.99;100.00
18795;BME280;29610;49.022;12.114;2023-04-10T01:46:21;98465.72;;;5.83;100.00
18795;BME280;29610;49.022;12.114;2023-04-10T01:49:12;98469.22;;;5.49;100.00
18795;BME280;29610;49.022;12.114;2023-04-10T01:52:04;98468.16;;;5.45;100.00
18795;BME280;29610;49.022;12.114;2023-04-10T01:54:54;98471.66;;;5.40;100.00
18795;BME280;29610;49.022;12.114;2023-04-10T01:57:53;98463.53;;;5.20;100.00
18795;BME280;29610;49.022;12.114;2023-04-10T02:00:44;98465.97;;;5.22;100.00
18795;BME280;29610;49.022;12.114;2023-04-10T02:03:36;98457.09;;;5.21;100.00
18795;BME280;29610;49.022;12.114;2023-04-10T02:06:46;98458.66;;;4.92;100.00
18795;BME280;29610;49.022;12.114;2023-04-10T02:10:09;98467.16;;;4.54;100.00
18795;BME280;29610;49.022;12.114;2023-04-10T02:13:05;98461.91;;;4.22;100.00
18795;BME280;29610;49.022;12.114;2023-04-10T02:15:58;98465.41;;;4.18;100.00
18795;BME280;29610;49.022;12.114;2023-04-10T02:18:53;98464.91;;;4.31;100.00
18795;BME280;29610;49.022;12.114;2023-04-10T02:21:43;98462.22;;;4.31;100.00
18795;BME280;29610;49.022;12.114;2023-04-10T02:24:33;98468.53;;;4.05;100.00
18795;BME280;29610;49.022;12.114;2023-04-10T02:27:28;98465.47;;;3.86;100.00
18795;BME280;29610;49.022;12.114;2023-04-10T02:30:18;98464.25;;;3.67;100.00
18795;BME280;29610;49.022;12.114;2023-04-10T02:33:07;98464.94;;;3.53;100.00
18795;BME280;29610;49.022;12.114;2023-04-10T02:35:59;98464.03;;;3.37;100.00
18795;BME280;29610;49.022;12.114;2023-04-10T02:38:48;98469.34;;;3.32;100.00
18795;BME280;29610;49.022;12.114;2023-04-10T02:41:38;98477.97;;;3.34;100.00
18795;BME280;29610;49.022;12.114;2023-04-10T02:44:27;98474.03;;;3.47;100.00
18795;BME280;29610;49.022;12.114;2023-04-10T02:47:17;98475.38;;;3.44;100.00
18795;BME280;29610;49.022;12.114;2023-04-10T02:50:08;98480.81;;;3.23;100.00
18795;BME280;29610;49.022;12.114;2023-04-10T02:53:01;98488.28;;;3.16;100.00
18795;BME280;29610;49.022;12.114;2023-04-10T02:55:51;98483.88;;;3.31;100.00
18795;BME280;29610;49.022;12.114;2023-04-10T02:58:41;98480.75;;;3.44;100.00
18795;BME280;29610;49.022;12.114;2023-04-10T03:01:33;98479.94;;;3.44;100.00
18795;BME280;29610;49.022;12.114;2023-04-10T03:04:22;98488.13;;;3.27;100.00
18795;BME280;29610;49.022;12.114;2023-04-10T03:07:12;98488.56;;;3.14;100.00
18795;BME280;29610;49.022;12.114;2023-04-10T03:10:02;98497.34;;;3.10;100.00
18795;BME280;29610;49.022;12.114;2023-04-10T03:12:51;98488.13;;;3.27;100.00
18795;BME280;29610;49.022;12.114;2023-04-10T03:15:40;98494.88;;;3.30;100.00
18795;BME280;29610;49.022;12.114;2023-04-10T03:18:29;98492.28;;;3.40;100.00
18795;BME280;29610;49.022;12.114;2023-04-10T03:21:20;98493.41;;;3.49;100.00
18795;BME280;29610;49.022;12.114;2023-04-10T03:24:09;98491.03;;;3.52;100.00
18795;BME280;29610;49.022;12.114;2023-04-10T03:27:00;98494.66;;;3.36;100.00
18795;BME280;29610;49.022;12.114;2023-04-10T03:29:49;98492.03;;;3.41;100.00
18795;BME280;29610;49.022;12.114;2023-04-10T03:32:37;98486.28;;;3.33;100.00
18795;BME280;29610;49.022;12.114;2023-04-10T03:35:28;98485.69;;;3.26;100.00
18795;BME280;29610;49.022;12.114;2023-04-10T03:38:18;98484.44;;;3.07;100.00
18795;BME280;29610;49.022;12.114;2023-04-10T03:41:06;98487.31;;;3.00;100.00
18795;BME280;29610;49.022;12.114;2023-04-10T03:43:57;98490.97;;;2.89;100.00
18795;BME280;29610;49.022;12.114;2023-04-10T03:46:48;98488.91;;;2.74;100.00
18795;BME280;29610;49.022;12.114;2023-04-10T03:49:37;98492.81;;;2.62;100.00
18795;BME280;29610;49.022;12.114;2023-04-10T03:52:27;98494.00;;;2.49;100.00
18795;BME280;29610;49.022;12.114;2023-04-10T03:55:16;98497.25;;;2.51;100.00
18795;BME280;29610;49.022;12.114;2023-04-10T03:58:07;98495.22;;;2.58;100.00
18795;BME280;29610;49.022;12.114;2023-04-10T04:00:58;98497.53;;;2.76;100.00
18795;BME280;29610;49.022;12.114;2023-04-10T04:04:01;98489.16;;;2.94;100.00
18795;BME280;29610;49.022;12.114;2023-04-10T04:07:09;98497.53;;;2.98;100.00
18795;BME280;29610;49.022;12.114;2023-04-10T04:10:17;98501.69;;;3.11;100.00
18795;BME280;29610;49.022;12.114;2023-04-10T04:13:21;98507.69;;;3.23;100.00
18795;BME280;29610;49.022;12.114;2023-04-10T04:16:25;98500.59;;;3.38;100.00
18795;BME280;29610;49.022;12.114;2023-04-10T04:19:28;98497.25;;;3.58;100.00
18795;BME280;29610;49.022;12.114;2023-04-10T04:22:36;98503.78;;;3.67;100.00
18795;BME280;29610;49.022;12.114;2023-04-10T04:25:45;98502.03;;;3.51;100.00
18795;BME280;29610;49.022;12.114;2023-04-10T04:29:09;98499.56;;;3.44;100.00
18795;BME280;29610;49.022;12.114;2023-04-10T04:32:08;98508.25;;;3.56;100.00
18795;BME280;29610;49.022;12.114;2023-04-10T04:35:14;98510.16;;;3.56;100.00
18795;BME280;29610;49.022;12.114;2023-04-10T04:38:16;98508.59;;;3.65;100.00
18795;BME280;29610;49.022;12.114;2023-04-10T04:41:32;98516.97;;;3.68;100.00
18795;BME280;29610;49.022;12.114;2023-04-10T04:44:24;98521.31;;;3.74;100.00
18795;BME280;29610;49.022;12.114;2023-04-10T04:47:40;98527.16;;;3.66;100.00
18795;BME280;29610;49.022;12.114;2023-04-10T04:50:40;98528.91;;;3.82;100.00
18795;BME280;29610;49.022;12.114;2023-04-10T04:53:48;98524.94;;;3.95;100.00
18795;BME280;29610;49.022;12.114;2023-04-10T04:56:56;98535.97;;;3.93;100.00
18795;BME280;29610;49.022;12.114;2023-04-10T05:00:06;98531.16;;;3.95;100.00
18795;BME280;29610;49.022;12.114;2023-04-10T05:03:19;98539.56;;;3.72;100.00
18795;BME280;29610;49.022;12.114;2023-04-10T05:06:35;98534.06;;;3.89;100.00
18795;BME280;29610;49.022;12.114;2023-04-10T05:09:54;98539.44;;;3.89;100.00
18795;BME280;29610;49.022;12.114;2023-04-10T05:12:43;98544.38;;;4.02;100.00
18795;BME280;29610;49.022;12.114;2023-04-10T05:15:54;98536.06;;;4.03;100.00
18795;BME280;29610;49.022;12.114;2023-04-10T05:19:03;98535.22;;;4.03;100.00
18795;BME280;29610;49.022;12.114;2023-04-10T05:22:12;98519.75;;;4.25;100.00
18795;BME280;29610;49.022;12.114;2023-04-10T05:25:12;98536.56;;;4.00;100.00
18795;BME280;29610;49.022;12.114;2023-04-10T05:28:27;98537.09;;;4.02;100.00
18795;BME280;29610;49.022;12.114;2023-04-10T05:31:35;98535.22;;;4.03;100.00
18795;BME280;29610;49.022;12.114;2023-04-10T05:34:59;98526.34;;;4.02;100.00
18795;BME280;29610;49.022;12.114;2023-04-10T05:38:14;98530.50;;;4.20;100.00
18795;BME280;29610;49.022;12.114;2023-04-10T05:41:12;98526.44;;;4.17;100.00
18795;BME280;29610;49.022;12.114;2023-04-10T05:44:20;98530.91;;;4.43;100.00
18795;BME280;29610;49.022;12.114;2023-04-10T05:47:25;98528.81;;;4.56;100.00
18795;BME280;29610;49.022;12.114;2023-04-10T05:50:48;98530.50;;;4.72;100.00
18795;BME280;29610;49.022;12.114;2023-04-10T05:53:54;98539.41;;;4.82;100.00
18795;BME280;29610;49.022;12.114;2023-04-10T05:57:00;98539.47;;;4.97;100.00
18795;BME280;29610;49.022;12.114;2023-04-10T06:00:13;98534.09;;;5.02;100.00
18795;BME280;29610;49.022;12.114;2023-04-10T06:03:42;98531.44;;;5.22;100.00
18795;BME280;29610;49.022;12.114;2023-04-10T06:06:33;98530.41;;;5.43;100.00
18795;BME280;29610;49.022;12.114;2023-04-10T06:09:22;98534.44;;;5.46;100.00
18795;BME280;29610;49.022;12.114;2023-04-10T06:12:12;98536.38;;;5.75;100.00
18795;BME280;29610;49.022;12.114;2023-04-10T06:15:01;98531.25;;;5.84;100.00
18795;BME280;29610;49.022;12.114;2023-04-10T06:17:54;98522.34;;;6.09;100.00
18795;BME280;29610;49.022;12.114;2023-04-10T06:20:43;98524.97;;;6.34;100.00
18795;BME280;29610;49.022;12.114;2023-04-10T06:23:34;98522.75;;;6.61;100.00
18795;BME280;29610;49.022;12.114;2023-04-10T06:26:23;98517.81;;;6.83;100.00
18795;BME280;29610;49.022;12.114;2023-04-10T06:29:13;98524.13;;;7.17;100.00
18795;BME280;29610;49.022;12.114;2023-04-10T06:32:03;98523.84;;;7.57;100.00
18795;BME280;29610;49.022;12.114;2023-04-10T06:34:57;98513.06;;;7.86;100.00
18795;BME280;29610;49.022;12.114;2023-04-10T06:37:46;98519.25;;;8.20;100.00
18795;BME280;29610;49.022;12.114;2023-04-10T06:40:37;98514.94;;;8.47;100.00
18795;BME280;29610;49.022;12.114;2023-04-10T06:43:26;98514.06;;;8.75;100.00
18795;BME280;29610;49.022;12.114;2023-04-10T06:46:15;98507.22;;;9.02;100.00
18795;BME280;29610;49.022;12.114;2023-04-10T06:49:04;98504.91;;;8.95;100.00
18795;BME280;29610;49.022;12.114;2023-04-10T06:51:53;98504.19;;;8.84;100.00
18795;BME280;29610;49.022;12.114;2023-04-10T06:54:42;98497.56;;;9.33;100.00
18795;BME280;29610;49.022;12.114;2023-04-10T06:57:32;98488.63;;;9.32;100.00
18795;BME280;29610;49.022;12.114;2023-04-10T07:00:23;98491.47;;;9.59;100.00
18795;BME280;29610;49.022;12.114;2023-04-10T07:03:13;98486.47;;;9.66;100.00
18795;BME280;29610;49.022;12.114;2023-04-10T07:06:04;98490.16;;;10.07;100.00
18795;BME280;29610;49.022;12.114;2023-04-10T07:08:54;98499.63;;;10.10;100.00
18795;BME280;29610;49.022;12.114;2023-04-10T07:11:43;98488.28;;;10.49;100.00
18795;BME280;29610;49.022;12.114;2023-04-10T07:14:34;98490.63;;;10.69;100.00
18795;BME280;29610;49.022;12.114;2023-04-10T07:17:23;98483.16;;;10.88;100.00
18795;BME280;29610;49.022;12.114;2023-04-10T07:20:12;98494.72;;;10.93;100.00
18795;BME280;29610;49.022;12.114;2023-04-10T07:23:01;98496.41;;;11.03;100.00
18795;BME280;29610;49.022;12.114;2023-04-10T07:25:50;98503.25;;;11.14;100.00
18795;BME280;29610;49.022;12.114;2023-04-10T07:28:39;98495.97;;;11.58;100.00
18795;BME280;29610;49.022;12.114;2023-04-10T07:31:30;98500.75;;;11.53;100.00
18795;BME280;29610;49.022;12.114;2023-04-10T07:34:19;98499.50;;;11.95;100.00
18795;BME280;29610;49.022;12.114;2023-04-10T07:37:08;98509.09;;;12.23;100.00
18795;BME280;29610;49.022;12.114;2023-04-10T07:39:57;98506.88;;;12.55;100.00
18795;BME280;29610;49.022;12.114;2023-04-10T07:42:46;98502.13;;;12.69;100.00
18795;BME280;29610;49.022;12.114;2023-04-10T07:45:34;98502.72;;;12.58;100.00
18795;BME280;29610;49.022;12.114;2023-04-10T07:48:25;98507.03;;;12.98;100.00
18795;BME280;29610;49.022;12.114;2023-04-10T07:51:15;98507.78;;;13.29;100.00
18795;BME280;29610;49.022;12.114;2023-04-10T07:54:04;98505.22;;;13.58;100.00
18795;BME280;29610;49.022;12.114;2023-04-10T07:56:52;98497.03;;;13.67;100.00
18795;BME280;29610;49.022;12.114;2023-04-10T07:59:41;98491.91;;;13.74;100.00
18795;BME280;29610;49.022;12.114;2023-04-10T08:02:30;98499.09;;;13.87;100.00
18795;BME280;29610;49.022;12.114;2023-04-10T08:05:21;98493.81;;;13.90;100.00
18795;BME280;29610;49.022;12.114;2023-04-10T08:08:10;98489.56;;;14.44;100.00
18795;BME280;29610;49.022;12.114;2023-04-10T08:10:59;98477.31;;;14.79;100.00
18795;BME280;29610;49.022;12.114;2023-04-10T08:13:48;98479.19;;;14.58;100.00
18795;BME280;29610;49.022;12.114;2023-04-10T08:16:38;98473.66;;;14.66;100.00
18795;BME280;29610;49.022;12.114;2023-04-10T08:19:27;98476.69;;;14.82;100.00
18795;BME280;29610;49.022;12.114;2023-04-10T08:22:18;98481.19;;;15.07;100.00
18795;BME280;29610;49.022;12.114;2023-04-10T08:25:07;98482.28;;;15.15;100.00
18795;BME280;29610;49.022;12.114;2023-04-10T08:27:56;98478.00;;;15.26;100.00
18795;BME280;29610;49.022;12.114;2023-04-10T08:30:46;98472.84;;;15.04;100.00
18795;BME280;29610;49.022;12.114;2023-04-10T08:33:35;98478.09;;;15.17;100.00
18795;BME280;29610;49.022;12.114;2023-04-10T08:36:25;98476.47;;;15.16;100.00
18795;BME280;29610;49.022;12.114;2023-04-10T08:39:15;98467.78;;;15.14;100.00
18795;BME280;29610;49.022;12.114;2023-04-10T08:42:06;98465.50;;;15.16;100.00
18795;BME280;29610;49.022;12.114;2023-04-10T08:44:55;98469.34;;;15.24;100.00
18795;BME280;29610;49.022;12.114;2023-04-10T08:47:47;98471.75;;;15.25;100.00
18795;BME280;29610;49.022;12.114;2023-04-10T08:50:41;98472.78;;;15.41;100.00
18795;BME280;29610;49.022;12.114;2023-04-10T08:53:31;98470.59;;;15.26;100.00
18795;BME280;29610;49.022;12.114;2023-04-10T08:56:25;98464.13;;;15.31;100.00
18795;BME280;29610;49.022;12.114;2023-04-10T08:59:15;98465.00;;;15.64;100.00
18795;BME280;29610;49.022;12.114;2023-04-10T09:02:05;98454.19;;;15.67;100.00
18795;BME280;29610;49.022;12.114;2023-04-10T09:04:56;98457.63;;;15.35;100.00
18795;BME280;29610;49.022;12.114;2023-04-10T09:07:47;98455.28;;;15.05;100.00
18795;BME280;29610;49.022;12.114;2023-04-10T09:10:35;98448.69;;;15.26;100.00
18795;BME280;29610;49.022;12.114;2023-04-10T09:13:40;98455.09;;;15.10;100.00
18795;BME280;29610;49.022;12.114;2023-04-10T09:16:30;98454.75;;;15.32;100.00
18795;BME280;29610;49.022;12.114;2023-04-10T09:19:29;98448.38;;;15.48;100.00
18795;BME280;29610;49.022;12.114;2023-04-10T09:22:29;98435.22;;;15.62;100.00
18795;BME280;29610;49.022;12.114;2023-04-10T09:25:30;98435.81;;;15.68;100.00
18795;BME280;29610;49.022;12.114;2023-04-10T09:28:20;98437.53;;;15.72;100.00
18795;BME280;29610;49.022;12.114;2023-04-10T09:31:31;98435.59;;;15.32;100.00
18795;BME280;29610;49.022;12.114;2023-04-10T09:34:21;98433.69;;;15.53;100.00
18795;BME280;29610;49.022;12.114;2023-04-10T09:37:10;98438.59;;;15.47;100.00
18795;BME280;29610;49.022;12.114;2023-04-10T09:40:00;98434.50;;;15.04;100.00
18795;BME280;29610;49.022;12.114;2023-04-10T09:42:50;98432.75;;;15.28;100.00
18795;BME280;29610;49.022;12.114;2023-04-10T09:45:47;98430.22;;;14.94;100.00
18795;BME280;29610;49.022;12.114;2023-04-10T09:48:53;98432.22;;;15.35;100.00
18795;BME280;29610;49.022;12.114;2023-04-10T09:51:43;98421.44;;;15.30;100.00
18795;BME280;29610;49.022;12.114;2023-04-10T09:54:36;98414.00;;;15.39;100.00
18795;BME280;29610;49.022;12.114;2023-04-10T09:57:28;98413.75;;;15.64;100.00
18795;BME280;29610;49.022;12.114;2023-04-10T10:00:17;98407.66;;;16.36;100.00
18795;BME280;29610;49.022;12.114;2023-04-10T10:03:09;98403.81;;;16.61;100.00
18795;BME280;29610;49.022;12.114;2023-04-10T10:06:00;98398.09;;;16.78;100.00
18795;BME280;29610;49.022;12.114;2023-04-10T10:08:50;98389.19;;;16.81;100.00
18795;BME280;29610;49.022;12.114;2023-04-10T10:11:40;98393.44;;;17.18;100.00
18795;BME280;29610;49.022;12.114;2023-04-10T10:14:30;98390.44;;;17.23;100.00
18795;BME280;29610;49.022;12.114;2023-04-10T10:17:23;98389.09;;;17.29;100.00
18795;BME280;29610;49.022;12.114;2023-04-10T10:20:19;98379.09;;;17.37;100.00
18795;BME280;29610;49.022;12.114;2023-04-10T10:23:12;98367.88;;;17.70;100.00
18795;BME280;29610;49.022;12.114;2023-04-10T10:26:04;98374.78;;;18.22;94.78
18795;BME280;29610;49.022;12.114;2023-04-10T10:28:56;98370.69;;;18.32;98.28
18795;BME280;29610;49.022;12.114;2023-04-10T10:31:46;98372.97;;;17.99;90.31
18795;BME280;29610;49.022;12.114;2023-04-10T10:34:35;98355.78;;;18.64;84.39
18795;BME280;29610;49.022;12.114;2023-04-10T10:37:27;98356.25;;;19.20;74.69
18795;BME280;29610;49.022;12.114;2023-04-10T10:40:25;98342.97;;;18.87;74.97
18795;BME280;29610;49.022;12.114;2023-04-10T10:43:23;98353.63;;;19.08;71.28
18795;BME280;29610;49.022;12.114;2023-04-10T10:46:22;98331.44;;;19.01;77.46
18795;BME280;29610;49.022;12.114;2023-04-10T10:49:12;98332.16;;;19.51;73.42
18795;BME280;29610;49.022;12.114;2023-04-10T10:52:01;98336.28;;;18.88;68.84
18795;BME280;29610;49.022;12.114;2023-04-10T10:54:50;98327.94;;;19.38;69.33
18795;BME280;29610;49.022;12.114;2023-04-10T10:57:49;98324.72;;;19.74;66.67
18795;BME280;29610;49.022;12.114;2023-04-10T11:01:11;98323.50;;;20.40;62.84
18795;BME280;29610;49.022;12.114;2023-04-10T11:04:42;98311.38;;;20.70;59.95
18795;BME280;29610;49.022;12.114;2023-04-10T11:08:06;98302.16;;;21.15;56.90
18795;BME280;29610;49.022;12.114;2023-04-10T11:10:59;98292.94;;;21.04;56.42
18795;BME280;29610;49.022;12.114;2023-04-10T11:14:13;98286.59;;;21.69;53.37
18795;BME280;29610;49.022;12.114;2023-04-10T11:17:04;98285.97;;;21.50;53.27
18795;BME280;29610;49.022;12.114;2023-04-10T11:19:58;98293.72;;;21.04;57.03
18795;BME280;29610;49.022;12.114;2023-04-10T11:23:08;98291.09;;;21.15;52.69
18795;BME280;29610;49.022;12.114;2023-04-10T11:25:58;98275.19;;;21.38;53.53
18795;BME280;29610;49.022;12.114;2023-04-10T11:28:47;98282.34;;;21.42;53.02
18795;BME280;29610;49.022;12.114;2023-04-10T11:31:38;98273.13;;;20.72;54.41
18795;BME280;29610;49.022;12.114;2023-04-10T11:34:27;98267.63;;;21.31;57.44
18795;BME280;29610;49.022;12.114;2023-04-10T11:37:21;98260.03;;;21.98;54.82
18795;BME280;29610;49.022;12.114;2023-04-10T11:40:12;98265.91;;;21.56;53.18
18795;BME280;29610;49.022;12.114;2023-04-10T11:43:12;98259.72;;;22.07;55.69
18795;BME280;29610;49.022;12.114;2023-04-10T11:46:04;98260.44;;;22.51;51.05
18795;BME280;29610;49.022;12.114;2023-04-10T11:48:58;98254.28;;;22.21;52.98
18795;BME280;29610;49.022;12.114;2023-04-10T11:51:49;98252.72;;;22.81;49.58
18795;BME280;29610;49.022;12.114;2023-04-10T11:54:47;98248.69;;;22.14;49.33
18795;BME280;29610;49.022;12.114;2023-04-10T11:57:36;98246.63;;;21.27;50.86
18795;BME280;29610;49.022;12.114;2023-04-10T12:00:25;98242.81;;;20.76;54.04
18795;BME280;29610;49.022;12.114;2023-04-10T12:03:14;98244.94;;;20.33;54.69
18795;BME280;29610;49.022;12.114;2023-04-10T12:06:07;98227.56;;;21.55;53.55
18795;BME280;29610;49.022;12.114;2023-04-10T12:08:57;98223.63;;;21.96;47.85
18795;BME280;29610;49.022;12.114;2023-04-10T12:11:51;98234.91;;;20.78;47.10
18795;BME280;29610;49.022;12.114;2023-04-10T12:14:41;98229.84;;;21.13;52.86
18795;BME280;29610;49.022;12.114;2023-04-10T12:17:30;98225.03;;;21.06;52.98
18795;BME280;29610;49.022;12.114;2023-04-10T12:20:20;98232.59;;;21.09;49.85
18795;BME280;29610;49.022;12.114;2023-04-10T12:23:14;98233.16;;;20.63;50.59
18795;BME280;29610;49.022;12.114;2023-04-10T12:26:11;98213.13;;;20.99;49.63
18795;BME280;29610;49.022;12.114;2023-04-10T12:29:00;98214.75;;;21.03;49.98
18795;BME280;29610;49.022;12.114;2023-04-10T12:31:49;98221.03;;;21.73;49.81
18795;BME280;29610;49.022;12.114;2023-04-10T12:34:39;98211.06;;;21.62;48.20
18795;BME280;29610;49.022;12.114;2023-04-10T12:37:46;98214.69;;;20.70;46.30
18795;BME280;29610;49.022;12.114;2023-04-10T12:40:37;98211.94;;;19.47;49.69
18795;BME280;29610;49.022;12.114;2023-04-10T12:43:33;98205.66;;;19.69;54.97
18795;BME280;29610;49.022;12.114;2023-04-10T12:46:25;98199.09;;;20.25;50.32
18795;BME280;29610;49.022;12.114;2023-04-10T12:49:16;98201.44;;;20.83;48.94
18795;BME280;29610;49.022;12.114;2023-04-10T12:52:06;98198.47;;;20.36;46.29
18795;BME280;29610;49.022;12.114;2023-04-10T12:55:08;98191.63;;;20.85;49.28
18795;BME280;29610;49.022;12.114;2023-04-10T12:58:15;98187.66;;;21.56;47.02
18795;BME280;29610;49.022;12.114;2023-04-10T13:01:07;98176.03;;;22.31;46.90
18795;BME280;29610;49.022;12.114;2023-04-10T13:03:57;98186.97;;;21.66;44.71
18795;BME280;29610;49.022;12.114;2023-04-10T13:06:48;98174.66;;;22.00;48.04
18795;BME280;29610;49.022;12.114;2023-04-10T13:09:39;98167.59;;;22.10;45.38
18795;BME280;29610;49.022;12.114;2023-04-10T13:12:28;98163.00;;;22.35;44.64
18795;BME280;29610;49.022;12.114;2023-04-10T13:15:18;98157.53;;;22.42;46.07
18795;BME280;29610;49.022;12.114;2023-04-10T13:18:07;98158.84;;;22.72;44.91
18795;BME280;29610;49.022;12.114;2023-04-10T13:20:57;98154.66;;;23.10;43.94
18795;BME280;29610;49.022;12.114;2023-04-10T13:23:46;98145.66;;;22.48;46.34
18795;BME280;29610;49.022;12.114;2023-04-10T13:26:35;98137.16;;;22.88;44.22
18795;BME280;29610;49.022;12.114;2023-04-10T13:29:24;98137.19;;;22.99;43.27
18795;BME280;29610;49.022;12.114;2023-04-10T13:32:14;98134.84;;;23.18;43.55
18795;BME280;29610;49.022;12.114;2023-04-10T13:35:04;98133.50;;;21.95;42.35
18795;BME280;29610;49.022;12.114;2023-04-10T13:37:53;98128.06;;;22.13;42.47
18795;BME280;29610;49.022;12.114;2023-04-10T13:40:42;98122.97;;;21.20;43.78
18795;BME280;29610;49.022;12.114;2023-04-10T13:43:31;98125.38;;;20.26;48.12
18795;BME280;29610;49.022;12.114;2023-04-10T13:46:20;98115.19;;;20.63;45.11
18795;BME280;29610;49.022;12.114;2023-04-10T13:49:10;98102.56;;;20.62;47.93
18795;BME280;29610;49.022;12.114;2023-04-10T13:52:03;98094.59;;;20.24;46.74
18795;BME280;29610;49.022;12.114;2023-04-10T13:54:52;98086.66;;;20.52;45.91
18795;BME280;29610;49.022;12.114;2023-04-10T13:57:41;98090.94;;;20.83;45.33
18795;BME280;29610;49.022;12.114;2023-04-10T14:00:30;98084.09;;;20.37;45.74
18795;BME280;29610;49.022;12.114;2023-04-10T14:03:19;98076.97;;;20.06;47.24
18795;BME280;29610;49.022;12.114;2023-04-10T14:06:09;98076.63;;;20.11;47.42
18795;BME280;29610;49.022;12.114;2023-04-10T14:08:58;98065.91;;;20.32;45.57
18795;BME280;29610;49.022;12.114;2023-04-10T14:11:47;98059.47;;;20.21;45.99
18795;BME280;29610;49.022;12.114;2023-04-10T14:14:36;98075.06;;;20.10;46.02
18795;BME280;29610;49.022;12.114;2023-04-10T14:17:25;98070.84;;;19.64;47.00
18795;BME280;29610;49.022;12.114;2023-04-10T14:20:14;98065.97;;;20.09;47.21
18795;BME280;29610;49.022;12.114;2023-04-10T14:23:05;98067.69;;;19.39;46.58
18795;BME280;29610;49.022;12.114;2023-04-10T14:25:54;98058.91;;;19.56;46.74
18795;BME280;29610;49.022;12.114;2023-04-10T14:28:42;98062.91;;;19.59;46.33
18795;BME280;29610;49.022;12.114;2023-04-10T14:31:31;98054.13;;;19.53;45.70
18795;BME280;29610;49.022;12.114;2023-04-10T14:34:25;98053.09;;;19.39;45.79
18795;BME280;29610;49.022;12.114;2023-04-10T14:37:14;98050.53;;;19.49;45.88
18795;BME280;29610;49.022;12.114;2023-04-10T14:40:09;98043.66;;;19.62;44.66
18795;BME280;29610;49.022;12.114;2023-04-10T14:42:58;98032.03;;;19.76;45.73
18795;BME280;29610;49.022;12.114;2023-04-10T14:45:46;98032.41;;;19.48;44.84
18795;BME280;29610;49.022;12.114;2023-04-10T14:48:35;98021.16;;;19.12;45.78
18795;BME280;29610;49.022;12.114;2023-04-10T14:51:24;98017.88;;;19.03;46.58
18795;BME280;29610;49.022;12.114;2023-04-10T14:54:14;98029.66;;;18.58;45.51
18795;BME280;29610;49.022;12.114;2023-04-10T14:57:04;98034.16;;;18.47;45.50
18795;BME280;29610;49.022;12.114;2023-04-10T14:59:53;98017.34;;;18.33;45.94
18795;BME280;29610;49.022;12.114;2023-04-10T15:02:42;98012.81;;;18.02;46.22
18795;BME280;29610;49.022;12.114;2023-04-10T15:05:32;98016.06;;;17.54;47.32
18795;BME280;29610;49.022;12.114;2023-04-10T15:08:20;98011.59;;;17.15;48.00